Nearby METAR Reports

 

KOXC - Oxford/Waterbury, Connecticut, USA
Distance from station: SE 8mi, 12km
Updated: Sun, 19-May-2019 2:51pm EDT
Mostly cloudy
Mostly cloudy
 Wind from S
Wind: S 18 mph , 30 km/h, Gust: 24 mph , 39 km/h
Temperature: 73°F , 23°C
Dew Point: 63°F , 17°C
Humidity: 69%
Barometer: 30.03 inHg , 1016.9 hPa
Clouds: Mostly cloudy
Visibility: 10 miles , 16 km
Cloud details: Mostly cloudy 2500 ft
2019/05/19 18:51 KOXC 191851Z 18016G21KT 10SM BKN025 23/17 A3003 RMK AO2 SLP178 T02280167
KDXR - Danbury, Connecticut, USA
Distance from station: SW 19mi, 30km
Updated: Sun, 19-May-2019 2:53pm EDT
Clear
Clear
 Wind from S
Wind: S 12 mph , 19 km/h, Gust: 21 mph , 33 km/h
Temperature: 75°F , 24°C
Dew Point: 63°F , 17°C
Humidity: 65%
Barometer: 30.01 inHg , 1016.3 hPa
Clouds: Clear
Visibility: 10 miles , 16 km
2019/05/19 18:53 KDXR 191853Z 18010G18KT 10SM CLR 24/17 A3001 RMK AO2 SLP159 T02440167
 
KMMK - Meriden, Connecticut, USA
Distance from station: E 20mi, 33km
Updated: Sun, 19-May-2019 3:01pm EDT
Mostly cloudy
Mostly cloudy
 Wind from S
Wind: S 15 mph , 24 km/h, Gust: 22 mph , 35 km/h
Temperature: 73°F , 23°C
Dew Point: 59°F , 15°C
Humidity: 61%
Barometer: 30.02 inHg , 1016.6 hPa
Clouds: Mostly cloudy
Visibility: 10 miles , 16 km
Cloud details: Mostly cloudy 2800 ft
2019/05/19 19:01 KMMK 191901Z AUTO 19013G19KT 10SM BKN028 23/15 A3002 RMK AO2 T02330150
KBDR - Bridgeport, Connecticut, USA
Distance from station: S 27mi, 44km
Updated: Sun, 19-May-2019 2:52pm EDT
Mostly cloudy
Mostly cloudy
 Wind from SSW
Wind: SSW 14 mph , 22 km/h
Temperature: 72°F , 22°C
Dew Point: 61°F , 16°C
Humidity: 69%
Barometer: 30.03 inHg , 1016.9 hPa
Clouds: Mostly cloudy
Visibility: 10 miles , 16 km
Cloud details: Mostly cloudy 2500 ft
2019/05/19 18:52 KBDR 191852Z 20012KT 10SM BKN025 22/16 A3003 RMK AO2 SLP169 T02220156
 
KHVN - New Haven/Tweed, Connecticut, USA
Distance from station: SE 27mi, 44km
Updated: Sun, 19-May-2019 2:53pm EDT
Few Clouds
Few Clouds
 Wind from S
Wind: S 8 mph , 13 km/h
Temperature: 73°F , 23°C
Dew Point: 59°F , 15°C
Humidity: 61%
Barometer: 30.04 inHg , 1017.3 hPa
Clouds: Few Clouds
Visibility: 10 miles , 16 km
Cloud details: Few Clouds 2500 ft
2019/05/19 18:53 KHVN 191853Z 18007KT 10SM FEW025 23/15 A3004 RMK AO2 SLP172 T02280150
KHFD - Hartford/Brainar, Connecticut, USA
Distance from station: ENE 32mi, 52km
Updated: Sun, 19-May-2019 2:53pm EDT
Partly cloudy
Partly cloudy
 Wind from S
Wind: S 16 mph , 26 km/h, Gust: 26 mph , 43 km/h
Temperature: 75°F , 24°C
Dew Point: 61°F , 16°C
Humidity: 61%
Barometer: 30.00 inHg , 1015.9 hPa
Clouds: Partly cloudy
Visibility: 10 miles , 16 km
Cloud details: Partly cloudy 3700 ft
2019/05/19 18:53 KHFD 191853Z 19014G23KT 10SM SCT037 24/16 A3000 RMK AO2 SLP159 T02390156
 
KPOU - Poughkeepsie, New York, USA
Distance from station: W 35mi, 56km
Updated: Sun, 19-May-2019 2:53pm EDT
Clear
Clear
 Wind from SSE
Wind: SSE 10 mph , 17 km/h
Temperature: 82°F , 28°C
Heat Index: 83°F , 28°C
Dew Point: 63°F , 17°C
Humidity: 51%
Barometer: 29.94 inHg , 1013.9 hPa
Clouds: Clear
Visibility: 10 miles , 16 km
2019/05/19 18:53 KPOU 191853Z 15009KT 120V190 10SM CLR 28/17 A2994 RMK AO2 SLP134 T02780172
KBDL - Windsor Locks, Connecticut, USA
Distance from station: NE 38mi, 62km
Updated: Sun, 19-May-2019 2:51pm EDT
Partly cloudy
Partly cloudy
 Wind from S
Wind: S 20 mph , 31 km/h, Gust: 29 mph , 46 km/h
Temperature: 79°F , 26°C
Dew Point: 59°F , 15°C
Humidity: 51%
Barometer: 29.98 inHg , 1015.2 hPa
Clouds: Partly cloudy
Visibility: 10 miles , 16 km
Cloud details: Few Clouds 5000 ft
Partly cloudy 25000 ft
2019/05/19 18:51 KBDL 191851Z 18017G25KT 10SM FEW050 SCT250 26/15 A2998 RMK AO2 SLP152 T02610150
 
KSNC - Chester, Connecticut, USA
Distance from station: ESE 39mi, 63km
Updated: Sun, 19-May-2019 2:55pm EDT
Overcast
Overcast
 Wind from S
Wind: S 14 mph , 22 km/h
Temperature: 72°F , 22°C
Dew Point: 57°F , 14°C
Humidity: 61%
Barometer: 30.06 inHg , 1017.9 hPa
Clouds: Overcast
Visibility: 10 miles , 16 km
Cloud details: Overcast 2200 ft
2019/05/19 18:55 KSNC 191855Z AUTO 17012KT 10SM OVC022 22/14 A3006 RMK AO2
KHPN - White Plains, New York, USA
Distance from station: SW 42mi, 67km
Updated: Sun, 19-May-2019 2:56pm EDT
Few Clouds
Few Clouds
 Wind from S
Wind: S 14 mph , 22 km/h, Gust: 26 mph , 43 km/h
Temperature: 73°F , 23°C
Dew Point: 64°F , 18°C
Humidity: 74%
Barometer: 30.00 inHg , 1015.9 hPa
Clouds: Few Clouds
Visibility: 10 miles , 16 km
Cloud details: Few Clouds 1800 ft
2019/05/19 18:56 KHPN 191856Z 17012G23KT 140V200 10SM FEW018 23/18 A3000 RMK AO2 SLP155 T02280178
 
KSWF - Newburgh/Stewart, New York, USA
Distance from station: W 45mi, 72km
Updated: Sun, 19-May-2019 2:45pm EDT
Few Clouds
Few Clouds
 Wind from SSE
Wind: SSE 14 mph , 22 km/h
Temperature: 81°F , 27°C
Heat Index: 83°F , 28°C
Dew Point: 66°F , 19°C
Humidity: 62%
Barometer: 29.96 inHg , 1014.6 hPa
Clouds: Few Clouds
Visibility: 20 miles , 32 km
Cloud details: Few Clouds 6000 ft
2019/05/19 18:45 KSWF 191845Z 16012KT 20SM FEW060 27/19 A2996
KBAF - Westfield, Massachusetts, USA
Distance from station: NNE 50mi, 80km
Updated: Sun, 19-May-2019 2:53pm EDT
Clear
Clear
 Wind from S
Wind: S 16 mph , 26 km/h, Gust: 25 mph , 41 km/h
Temperature: 79°F , 26°C
Dew Point: 57°F , 14°C
Humidity: 48%
Barometer: 29.96 inHg , 1014.6 hPa
Clouds: Clear
Visibility: 10 miles , 16 km
2019/05/19 18:53 KBAF 191853Z 18014G22KT 10SM CLR 26/14 A2996 RMK AO2 SLP144 T02610144